Pucha Pucha, Argentina
Current Conditions -  °F | °C
As of 7:00 AM on Sunday 25 Jan 2015 (Local Time) from SCAT Reporting Station
NA  
Wind Chill: 64°   Ceiling: NA
Heat Index: 64°   Visibility: 6mi
Dew Point: 55°   Wind: 5mph
Humidity: 73%   Direction: 60°ENE
Pressure: 29.97"   Gusts: NA
Location:  28.34°S, 69.22°W
Report Text: SCAT 251000Z AUTO 06004KT 9999 // ///023 18/13 Q1015
Loading
Personal Weather Stations






























Interactive Weather Map New forecast layout! Learn more

10-Day Weather Forecast

Advertisements
Track Severe Weather on mobile